sensor_id;sensor_type;location;lat;lon;timestamp;P1;durP1;ratioP1;P2;durP2;ratioP2
20000;SDS011;10161;41.188;-8.642;2023-12-22T00:00:39;8.10;;;7.40;;
20000;SDS011;10161;41.188;-8.642;2023-12-22T00:03:08;8.40;;;7.60;;
20000;SDS011;10161;41.188;-8.642;2023-12-22T00:05:34;7.87;;;7.00;;
20000;SDS011;10161;41.188;-8.642;2023-12-22T00:08:01;8.33;;;7.50;;
20000;SDS011;10161;41.188;-8.642;2023-12-22T00:10:30;7.63;;;6.93;;
20000;SDS011;10161;41.188;-8.642;2023-12-22T00:12:57;8.60;;;7.80;;
20000;SDS011;10161;41.188;-8.642;2023-12-22T00:15:23;8.30;;;7.57;;
20000;SDS011;10161;41.188;-8.642;2023-12-22T00:17:50;8.70;;;7.83;;
20000;SDS011;10161;41.188;-8.642;2023-12-22T00:20:19;8.43;;;7.70;;
20000;SDS011;10161;41.188;-8.642;2023-12-22T00:22:46;8.20;;;7.40;;
20000;SDS011;10161;41.188;-8.642;2023-12-22T00:25:13;8.17;;;7.37;;
20000;SDS011;10161;41.188;-8.642;2023-12-22T00:27:40;7.60;;;6.90;;
20000;SDS011;10161;41.188;-8.642;2023-12-22T00:30:07;8.83;;;8.03;;
20000;SDS011;10161;41.188;-8.642;2023-12-22T00:32:35;8.07;;;7.27;;
20000;SDS011;10161;41.188;-8.642;2023-12-22T00:35:01;7.43;;;6.73;;
20000;SDS011;10161;41.188;-8.642;2023-12-22T00:37:31;8.17;;;7.37;;
20000;SDS011;10161;41.188;-8.642;2023-12-22T00:39:58;8.37;;;7.57;;
20000;SDS011;10161;41.188;-8.642;2023-12-22T00:42:25;7.33;;;6.73;;
20000;SDS011;10161;41.188;-8.642;2023-12-22T00:44:52;8.03;;;7.30;;
20000;SDS011;10161;41.188;-8.642;2023-12-22T00:47:18;7.50;;;6.80;;
20000;SDS011;10161;41.188;-8.642;2023-12-22T00:49:45;8.67;;;7.83;;
20000;SDS011;10161;41.188;-8.642;2023-12-22T00:52:12;8.50;;;7.70;;
20000;SDS011;10161;41.188;-8.642;2023-12-22T00:54:41;8.83;;;7.93;;
20000;SDS011;10161;41.188;-8.642;2023-12-22T00:57:08;8.27;;;7.50;;
20000;SDS011;10161;41.188;-8.642;2023-12-22T00:59:34;8.00;;;7.33;;
20000;SDS011;10161;41.188;-8.642;2023-12-22T01:02:01;8.30;;;7.53;;
20000;SDS011;10161;41.188;-8.642;2023-12-22T01:04:28;8.43;;;7.63;;
20000;SDS011;10161;41.188;-8.642;2023-12-22T01:06:55;8.93;;;8.10;;
20000;SDS011;10161;41.188;-8.642;2023-12-22T01:09:22;8.53;;;7.63;;
20000;SDS011;10161;41.188;-8.642;2023-12-22T01:11:50;8.00;;;7.30;;
20000;SDS011;10161;41.188;-8.642;2023-12-22T01:14:17;7.90;;;7.20;;
20000;SDS011;10161;41.188;-8.642;2023-12-22T01:16:44;8.10;;;7.30;;
20000;SDS011;10161;41.188;-8.642;2023-12-22T01:19:11;8.60;;;7.70;;
20000;SDS011;10161;41.188;-8.642;2023-12-22T01:21:38;8.10;;;7.30;;
20000;SDS011;10161;41.188;-8.642;2023-12-22T01:24:06;7.50;;;6.90;;
20000;SDS011;10161;41.188;-8.642;2023-12-22T01:26:33;9.00;;;8.20;;
20000;SDS011;10161;41.188;-8.642;2023-12-22T01:29:01;8.50;;;7.70;;
20000;SDS011;10161;41.188;-8.642;2023-12-22T01:31:28;9.00;;;7.97;;
20000;SDS011;10161;41.188;-8.642;2023-12-22T01:33:55;8.60;;;7.80;;
20000;SDS011;10161;41.188;-8.642;2023-12-22T01:36:22;8.53;;;7.73;;
20000;SDS011;10161;41.188;-8.642;2023-12-22T01:38:49;9.00;;;7.43;;
20000;SDS011;10161;41.188;-8.642;2023-12-22T01:41:16;8.07;;;7.30;;
20000;SDS011;10161;41.188;-8.642;2023-12-22T01:43:42;8.80;;;8.00;;
20000;SDS011;10161;41.188;-8.642;2023-12-22T01:46:10;9.43;;;8.53;;
20000;SDS011;10161;41.188;-8.642;2023-12-22T01:48:38;9.57;;;8.67;;
20000;SDS011;10161;41.188;-8.642;2023-12-22T01:51:05;8.70;;;7.90;;
20000;SDS011;10161;41.188;-8.642;2023-12-22T01:53:33;10.07;;;9.17;;
20000;SDS011;10161;41.188;-8.642;2023-12-22T01:56:00;9.80;;;8.90;;
20000;SDS011;10161;41.188;-8.642;2023-12-22T01:58:28;9.20;;;8.37;;
20000;SDS011;10161;41.188;-8.642;2023-12-22T02:00:56;9.20;;;8.30;;
20000;SDS011;10161;41.188;-8.642;2023-12-22T02:03:24;10.57;;;9.37;;
20000;SDS011;10161;41.188;-8.642;2023-12-22T02:05:51;9.00;;;8.07;;
20000;SDS011;10161;41.188;-8.642;2023-12-22T02:08:18;10.37;;;9.37;;
20000;SDS011;10161;41.188;-8.642;2023-12-22T02:10:46;8.53;;;7.73;;
20000;SDS011;10161;41.188;-8.642;2023-12-22T02:13:13;9.40;;;8.57;;
20000;SDS011;10161;41.188;-8.642;2023-12-22T02:15:40;9.57;;;8.73;;
20000;SDS011;10161;41.188;-8.642;2023-12-22T02:18:09;9.10;;;8.20;;
20000;SDS011;10161;41.188;-8.642;2023-12-22T02:20:40;8.37;;;7.57;;
20000;SDS011;10161;41.188;-8.642;2023-12-22T02:23:10;8.60;;;7.80;;
20000;SDS011;10161;41.188;-8.642;2023-12-22T02:25:37;8.70;;;7.90;;
20000;SDS011;10161;41.188;-8.642;2023-12-22T02:28:05;8.87;;;8.07;;
20000;SDS011;10161;41.188;-8.642;2023-12-22T02:30:37;9.47;;;8.67;;
20000;SDS011;10161;41.188;-8.642;2023-12-22T02:33:08;8.87;;;7.97;;
20000;SDS011;10161;41.188;-8.642;2023-12-22T02:35:36;9.53;;;8.63;;
20000;SDS011;10161;41.188;-8.642;2023-12-22T02:38:04;9.33;;;8.40;;
20000;SDS011;10161;41.188;-8.642;2023-12-22T02:40:33;9.10;;;8.30;;
20000;SDS011;10161;41.188;-8.642;2023-12-22T02:43:01;9.37;;;8.50;;
20000;SDS011;10161;41.188;-8.642;2023-12-22T02:45:28;8.63;;;7.90;;
20000;SDS011;10161;41.188;-8.642;2023-12-22T02:47:55;9.50;;;8.70;;
20000;SDS011;10161;41.188;-8.642;2023-12-22T02:50:22;9.33;;;8.50;;
20000;SDS011;10161;41.188;-8.642;2023-12-22T02:52:49;9.60;;;8.60;;
20000;SDS011;10161;41.188;-8.642;2023-12-22T02:55:17;9.90;;;9.00;;
20000;SDS011;10161;41.188;-8.642;2023-12-22T02:57:45;9.97;;;9.07;;
20000;SDS011;10161;41.188;-8.642;2023-12-22T03:00:14;10.20;;;9.20;;
20000;SDS011;10161;41.188;-8.642;2023-12-22T03:02:41;9.83;;;8.93;;
20000;SDS011;10161;41.188;-8.642;2023-12-22T03:05:08;8.20;;;7.50;;
20000;SDS011;10161;41.188;-8.642;2023-12-22T03:07:35;9.10;;;8.30;;
20000;SDS011;10161;41.188;-8.642;2023-12-22T03:10:02;10.20;;;9.20;;
20000;SDS011;10161;41.188;-8.642;2023-12-22T03:12:29;9.93;;;9.03;;
20000;SDS011;10161;41.188;-8.642;2023-12-22T03:14:57;9.57;;;8.70;;
20000;SDS011;10161;41.188;-8.642;2023-12-22T03:17:24;9.80;;;8.90;;
20000;SDS011;10161;41.188;-8.642;2023-12-22T03:19:51;8.67;;;7.87;;
20000;SDS011;10161;41.188;-8.642;2023-12-22T03:22:18;9.73;;;8.83;;
20000;SDS011;10161;41.188;-8.642;2023-12-22T03:24:45;10.53;;;9.53;;
20000;SDS011;10161;41.188;-8.642;2023-12-22T03:27:12;9.90;;;9.00;;
20000;SDS011;10161;41.188;-8.642;2023-12-22T03:29:41;8.90;;;8.10;;
20000;SDS011;10161;41.188;-8.642;2023-12-22T03:32:11;9.70;;;8.83;;
20000;SDS011;10161;41.188;-8.642;2023-12-22T03:34:38;9.23;;;8.33;;
20000;SDS011;10161;41.188;-8.642;2023-12-22T03:37:05;9.73;;;8.73;;
20000;SDS011;10161;41.188;-8.642;2023-12-22T03:39:31;11.03;;;10.03;;
20000;SDS011;10161;41.188;-8.642;2023-12-22T03:41:58;9.80;;;8.90;;
20000;SDS011;10161;41.188;-8.642;2023-12-22T03:44:25;10.63;;;9.67;;
20000;SDS011;10161;41.188;-8.642;2023-12-22T03:46:52;9.87;;;8.97;;
20000;SDS011;10161;41.188;-8.642;2023-12-22T03:49:21;9.77;;;8.87;;
20000;SDS011;10161;41.188;-8.642;2023-12-22T03:51:48;10.20;;;9.30;;
20000;SDS011;10161;41.188;-8.642;2023-12-22T03:54:15;9.47;;;8.57;;
20000;SDS011;10161;41.188;-8.642;2023-12-22T03:56:42;9.90;;;9.00;;
20000;SDS011;10161;41.188;-8.642;2023-12-22T03:59:09;9.40;;;8.50;;
20000;SDS011;10161;41.188;-8.642;2023-12-22T04:01:36;10.30;;;9.40;;
20000;SDS011;10161;41.188;-8.642;2023-12-22T04:04:03;9.30;;;8.50;;
20000;SDS011;10161;41.188;-8.642;2023-12-22T04:06:32;8.90;;;8.10;;
20000;SDS011;10161;41.188;-8.642;2023-12-22T04:09:00;9.77;;;8.87;;
20000;SDS011;10161;41.188;-8.642;2023-12-22T04:11:27;10.33;;;9.33;;
20000;SDS011;10161;41.188;-8.642;2023-12-22T04:13:54;9.33;;;8.43;;
20000;SDS011;10161;41.188;-8.642;2023-12-22T04:16:21;9.97;;;9.07;;
20000;SDS011;10161;41.188;-8.642;2023-12-22T04:18:48;10.00;;;9.10;;
20000;SDS011;10161;41.188;-8.642;2023-12-22T04:21:18;8.13;;;7.43;;
20000;SDS011;10161;41.188;-8.642;2023-12-22T04:23:47;9.73;;;8.87;;
20000;SDS011;10161;41.188;-8.642;2023-12-22T04:26:14;9.00;;;8.20;;
20000;SDS011;10161;41.188;-8.642;2023-12-22T04:28:41;9.53;;;8.73;;
20000;SDS011;10161;41.188;-8.642;2023-12-22T04:31:08;9.37;;;8.47;;
20000;SDS011;10161;41.188;-8.642;2023-12-22T04:33:35;9.33;;;8.43;;
20000;SDS011;10161;41.188;-8.642;2023-12-22T04:36:01;9.90;;;9.00;;
20000;SDS011;10161;41.188;-8.642;2023-12-22T04:38:29;9.53;;;8.63;;
20000;SDS011;10161;41.188;-8.642;2023-12-22T04:40:57;9.70;;;8.70;;
20000;SDS011;10161;41.188;-8.642;2023-12-22T04:43:24;10.47;;;9.57;;
20000;SDS011;10161;41.188;-8.642;2023-12-22T04:45:51;10.00;;;9.00;;
20000;SDS011;10161;41.188;-8.642;2023-12-22T04:48:19;9.93;;;8.97;;
20000;SDS011;10161;41.188;-8.642;2023-12-22T04:50:46;9.30;;;8.40;;
20000;SDS011;10161;41.188;-8.642;2023-12-22T04:53:13;9.70;;;8.80;;
20000;SDS011;10161;41.188;-8.642;2023-12-22T04:55:41;9.10;;;8.20;;
20000;SDS011;10161;41.188;-8.642;2023-12-22T04:58:09;9.33;;;8.43;;
20000;SDS011;10161;41.188;-8.642;2023-12-22T05:00:36;8.90;;;8.10;;
20000;SDS011;10161;41.188;-8.642;2023-12-22T05:03:03;8.87;;;8.07;;
20000;SDS011;10161;41.188;-8.642;2023-12-22T05:05:30;8.53;;;7.77;;
20000;SDS011;10161;41.188;-8.642;2023-12-22T05:07:56;9.03;;;8.20;;
20000;SDS011;10161;41.188;-8.642;2023-12-22T05:10:23;9.50;;;8.60;;
20000;SDS011;10161;41.188;-8.642;2023-12-22T05:12:50;8.80;;;8.00;;
20000;SDS011;10161;41.188;-8.642;2023-12-22T05:15:18;9.87;;;8.87;;
20000;SDS011;10161;41.188;-8.642;2023-12-22T05:17:45;9.27;;;8.37;;
20000;SDS011;10161;41.188;-8.642;2023-12-22T05:20:12;9.50;;;8.63;;
20000;SDS011;10161;41.188;-8.642;2023-12-22T05:22:39;9.20;;;8.30;;
20000;SDS011;10161;41.188;-8.642;2023-12-22T05:25:07;9.17;;;8.27;;
20000;SDS011;10161;41.188;-8.642;2023-12-22T05:27:35;8.60;;;7.80;;
20000;SDS011;10161;41.188;-8.642;2023-12-22T05:30:02;9.13;;;8.33;;
20000;SDS011;10161;41.188;-8.642;2023-12-22T05:32:33;9.10;;;8.20;;
20000;SDS011;10161;41.188;-8.642;2023-12-22T05:34:59;9.03;;;8.13;;
20000;SDS011;10161;41.188;-8.642;2023-12-22T05:37:26;8.53;;;7.73;;
20000;SDS011;10161;41.188;-8.642;2023-12-22T05:39:55;9.37;;;8.57;;
20000;SDS011;10161;41.188;-8.642;2023-12-22T05:42:22;9.33;;;8.33;;
20000;SDS011;10161;41.188;-8.642;2023-12-22T05:44:49;9.10;;;8.30;;
20000;SDS011;10161;41.188;-8.642;2023-12-22T05:47:16;9.43;;;8.53;;
20000;SDS011;10161;41.188;-8.642;2023-12-22T05:49:45;9.27;;;7.97;;
20000;SDS011;10161;41.188;-8.642;2023-12-22T05:52:12;9.00;;;8.10;;
20000;SDS011;10161;41.188;-8.642;2023-12-22T05:54:39;8.93;;;8.10;;
20000;SDS011;10161;41.188;-8.642;2023-12-22T05:57:06;8.63;;;7.83;;
20000;SDS011;10161;41.188;-8.642;2023-12-22T05:59:34;7.90;;;7.20;;
20000;SDS011;10161;41.188;-8.642;2023-12-22T06:02:01;8.67;;;7.80;;
20000;SDS011;10161;41.188;-8.642;2023-12-22T06:04:29;9.20;;;8.40;;
20000;SDS011;10161;41.188;-8.642;2023-12-22T06:06:57;8.70;;;7.90;;
20000;SDS011;10161;41.188;-8.642;2023-12-22T06:09:24;7.87;;;7.17;;
20000;SDS011;10161;41.188;-8.642;2023-12-22T06:11:51;8.90;;;8.10;;
20000;SDS011;10161;41.188;-8.642;2023-12-22T06:14:20;8.10;;;7.40;;
20000;SDS011;10161;41.188;-8.642;2023-12-22T06:16:47;9.40;;;8.50;;
20000;SDS011;10161;41.188;-8.642;2023-12-22T06:19:15;8.33;;;7.53;;
20000;SDS011;10161;41.188;-8.642;2023-12-22T06:21:43;7.50;;;6.80;;
20000;SDS011;10161;41.188;-8.642;2023-12-22T06:24:12;8.67;;;7.87;;
20000;SDS011;10161;41.188;-8.642;2023-12-22T06:26:40;8.80;;;7.90;;
20000;SDS011;10161;41.188;-8.642;2023-12-22T06:29:07;8.40;;;7.60;;
20000;SDS011;10161;41.188;-8.642;2023-12-22T06:31:34;8.80;;;8.00;;
20000;SDS011;10161;41.188;-8.642;2023-12-22T06:34:01;9.00;;;8.20;;
20000;SDS011;10161;41.188;-8.642;2023-12-22T06:36:28;8.07;;;7.37;;
20000;SDS011;10161;41.188;-8.642;2023-12-22T06:38:56;8.40;;;7.60;;
20000;SDS011;10161;41.188;-8.642;2023-12-22T06:41:25;8.60;;;7.80;;
20000;SDS011;10161;41.188;-8.642;2023-12-22T06:43:52;7.67;;;7.00;;
20000;SDS011;10161;41.188;-8.642;2023-12-22T06:46:19;8.60;;;7.80;;
20000;SDS011;10161;41.188;-8.642;2023-12-22T06:48:48;8.10;;;7.30;;
20000;SDS011;10161;41.188;-8.642;2023-12-22T06:51:18;8.27;;;7.50;;
20000;SDS011;10161;41.188;-8.642;2023-12-22T06:53:47;8.47;;;7.70;;
20000;SDS011;10161;41.188;-8.642;2023-12-22T06:56:16;8.87;;;8.00;;
20000;SDS011;10161;41.188;-8.642;2023-12-22T06:58:45;8.90;;;8.10;;
20000;SDS011;10161;41.188;-8.642;2023-12-22T07:01:17;8.67;;;7.87;;
20000;SDS011;10161;41.188;-8.642;2023-12-22T07:03:45;8.57;;;7.77;;
20000;SDS011;10161;41.188;-8.642;2023-12-22T07:06:13;9.60;;;8.70;;
20000;SDS011;10161;41.188;-8.642;2023-12-22T07:08:40;9.50;;;8.60;;
20000;SDS011;10161;41.188;-8.642;2023-12-22T07:11:08;9.03;;;8.13;;
20000;SDS011;10161;41.188;-8.642;2023-12-22T07:13:35;9.90;;;9.00;;
20000;SDS011;10161;41.188;-8.642;2023-12-22T07:16:03;9.80;;;8.80;;
20000;SDS011;10161;41.188;-8.642;2023-12-22T07:18:32;9.17;;;8.37;;
20000;SDS011;10161;41.188;-8.642;2023-12-22T07:20:59;9.23;;;8.43;;
20000;SDS011;10161;41.188;-8.642;2023-12-22T07:23:26;8.97;;;8.07;;
20000;SDS011;10161;41.188;-8.642;2023-12-22T07:25:53;9.40;;;8.50;;
20000;SDS011;10161;41.188;-8.642;2023-12-22T07:28:20;9.80;;;8.90;;
20000;SDS011;10161;41.188;-8.642;2023-12-22T07:30:47;9.80;;;8.90;;
20000;SDS011;10161;41.188;-8.642;2023-12-22T07:33:16;9.70;;;8.80;;
20000;SDS011;10161;41.188;-8.642;2023-12-22T07:35:42;8.90;;;8.10;;
20000;SDS011;10161;41.188;-8.642;2023-12-22T07:38:09;9.53;;;8.67;;
20000;SDS011;10161;41.188;-8.642;2023-12-22T07:40:36;10.03;;;9.07;;
20000;SDS011;10161;41.188;-8.642;2023-12-22T07:43:03;9.57;;;8.67;;
20000;SDS011;10161;41.188;-8.642;2023-12-22T07:45:30;9.23;;;8.33;;
20000;SDS011;10161;41.188;-8.642;2023-12-22T07:47:57;9.20;;;8.30;;
20000;SDS011;10161;41.188;-8.642;2023-12-22T07:50:25;9.50;;;8.57;;
20000;SDS011;10161;41.188;-8.642;2023-12-22T07:52:54;9.93;;;8.97;;
20000;SDS011;10161;41.188;-8.642;2023-12-22T07:55:20;9.90;;;9.00;;
20000;SDS011;10161;41.188;-8.642;2023-12-22T07:57:47;10.17;;;9.27;;
20000;SDS011;10161;41.188;-8.642;2023-12-22T08:00:16;10.00;;;9.10;;
20000;SDS011;10161;41.188;-8.642;2023-12-22T08:02:43;10.33;;;9.23;;
20000;SDS011;10161;41.188;-8.642;2023-12-22T08:05:10;9.77;;;8.87;;
20000;SDS011;10161;41.188;-8.642;2023-12-22T08:07:38;9.77;;;8.80;;
20000;SDS011;10161;41.188;-8.642;2023-12-22T08:10:06;10.30;;;9.30;;
20000;SDS011;10161;41.188;-8.642;2023-12-22T08:12:33;10.17;;;9.27;;
20000;SDS011;10161;41.188;-8.642;2023-12-22T08:15:01;11.00;;;9.90;;
20000;SDS011;10161;41.188;-8.642;2023-12-22T08:17:28;10.00;;;9.10;;
20000;SDS011;10161;41.188;-8.642;2023-12-22T08:19:55;10.50;;;9.50;;
20000;SDS011;10161;41.188;-8.642;2023-12-22T08:22:22;10.90;;;9.83;;
20000;SDS011;10161;41.188;-8.642;2023-12-22T08:24:52;10.97;;;9.97;;
20000;SDS011;10161;41.188;-8.642;2023-12-22T08:27:19;11.57;;;10.47;;
20000;SDS011;10161;41.188;-8.642;2023-12-22T08:29:47;11.10;;;9.83;;
20000;SDS011;10161;41.188;-8.642;2023-12-22T08:32:14;11.50;;;10.40;;
20000;SDS011;10161;41.188;-8.642;2023-12-22T08:34:41;12.50;;;11.30;;
20000;SDS011;10161;41.188;-8.642;2023-12-22T08:37:09;12.17;;;10.97;;
20000;SDS011;10161;41.188;-8.642;2023-12-22T08:39:36;11.10;;;10.10;;
20000;SDS011;10161;41.188;-8.642;2023-12-22T08:42:06;12.03;;;10.93;;
20000;SDS011;10161;41.188;-8.642;2023-12-22T08:44:33;13.50;;;11.80;;
20000;SDS011;10161;41.188;-8.642;2023-12-22T08:47:02;11.80;;;10.70;;
20000;SDS011;10161;41.188;-8.642;2023-12-22T08:49:29;14.93;;;12.07;;
20000;SDS011;10161;41.188;-8.642;2023-12-22T08:51:56;12.60;;;11.30;;
20000;SDS011;10161;41.188;-8.642;2023-12-22T08:54:23;12.53;;;11.23;;
20000;SDS011;10161;41.188;-8.642;2023-12-22T08:56:51;12.20;;;11.00;;
20000;SDS011;10161;41.188;-8.642;2023-12-22T08:59:21;11.47;;;10.37;;
20000;SDS011;10161;41.188;-8.642;2023-12-22T09:01:48;13.30;;;12.00;;
20000;SDS011;10161;41.188;-8.642;2023-12-22T09:04:15;12.90;;;11.50;;
20000;SDS011;10161;41.188;-8.642;2023-12-22T09:06:42;11.70;;;10.50;;
20000;SDS011;10161;41.188;-8.642;2023-12-22T09:09:10;13.97;;;12.57;;
20000;SDS011;10161;41.188;-8.642;2023-12-22T09:11:37;12.07;;;10.97;;
20000;SDS011;10161;41.188;-8.642;2023-12-22T09:14:04;12.43;;;11.30;;
20000;SDS011;10161;41.188;-8.642;2023-12-22T09:16:37;12.80;;;11.60;;
20000;SDS011;10161;41.188;-8.642;2023-12-22T09:19:04;12.60;;;11.43;;
20000;SDS011;10161;41.188;-8.642;2023-12-22T09:21:31;13.40;;;12.10;;
20000;SDS011;10161;41.188;-8.642;2023-12-22T09:23:58;13.97;;;12.57;;
20000;SDS011;10161;41.188;-8.642;2023-12-22T09:26:25;14.67;;;13.23;;
20000;SDS011;10161;41.188;-8.642;2023-12-22T09:28:53;13.23;;;11.93;;
20000;SDS011;10161;41.188;-8.642;2023-12-22T09:31:20;13.40;;;12.10;;
20000;SDS011;10161;41.188;-8.642;2023-12-22T09:33:50;12.10;;;10.90;;
20000;SDS011;10161;41.188;-8.642;2023-12-22T09:36:18;13.17;;;11.87;;
20000;SDS011;10161;41.188;-8.642;2023-12-22T09:38:45;12.63;;;11.43;;
20000;SDS011;10161;41.188;-8.642;2023-12-22T09:41:13;12.50;;;11.17;;
20000;SDS011;10161;41.188;-8.642;2023-12-22T09:43:40;12.50;;;11.20;;
20000;SDS011;10161;41.188;-8.642;2023-12-22T09:46:08;12.70;;;11.40;;
20000;SDS011;10161;41.188;-8.642;2023-12-22T09:48:37;12.83;;;11.63;;
20000;SDS011;10161;41.188;-8.642;2023-12-22T09:51:06;13.00;;;11.70;;
20000;SDS011;10161;41.188;-8.642;2023-12-22T09:53:33;11.80;;;10.60;;
20000;SDS011;10161;41.188;-8.642;2023-12-22T09:56:02;12.87;;;11.60;;
20000;SDS011;10161;41.188;-8.642;2023-12-22T09:58:30;12.47;;;11.17;;
20000;SDS011;10161;41.188;-8.642;2023-12-22T10:01:00;12.47;;;11.20;;
20000;SDS011;10161;41.188;-8.642;2023-12-22T10:03:30;11.73;;;10.47;;
20000;SDS011;10161;41.188;-8.642;2023-12-22T10:05:59;12.70;;;11.40;;
20000;SDS011;10161;41.188;-8.642;2023-12-22T10:08:28;10.67;;;9.63;;
20000;SDS011;10161;41.188;-8.642;2023-12-22T10:10:55;11.70;;;10.70;;
20000;SDS011;10161;41.188;-8.642;2023-12-22T10:13:23;10.03;;;9.03;;
20000;SDS011;10161;41.188;-8.642;2023-12-22T10:15:53;10.47;;;9.47;;
20000;SDS011;10161;41.188;-8.642;2023-12-22T10:18:21;11.27;;;10.17;;
20000;SDS011;10161;41.188;-8.642;2023-12-22T10:20:49;10.60;;;9.60;;
20000;SDS011;10161;41.188;-8.642;2023-12-22T10:23:15;11.17;;;10.07;;
20000;SDS011;10161;41.188;-8.642;2023-12-22T10:25:44;10.23;;;9.20;;
20000;SDS011;10161;41.188;-8.642;2023-12-22T10:28:12;10.83;;;9.73;;
20000;SDS011;10161;41.188;-8.642;2023-12-22T10:30:39;9.53;;;8.63;;
20000;SDS011;10161;41.188;-8.642;2023-12-22T10:33:07;10.67;;;9.67;;
20000;SDS011;10161;41.188;-8.642;2023-12-22T10:35:33;9.43;;;8.53;;
20000;SDS011;10161;41.188;-8.642;2023-12-22T10:38:00;10.60;;;9.60;;
20000;SDS011;10161;41.188;-8.642;2023-12-22T10:40:27;10.30;;;9.30;;
20000;SDS011;10161;41.188;-8.642;2023-12-22T10:42:56;10.23;;;9.23;;
20000;SDS011;10161;41.188;-8.642;2023-12-22T10:45:23;9.93;;;9.03;;
20000;SDS011;10161;41.188;-8.642;2023-12-22T10:47:51;9.83;;;8.90;;
20000;SDS011;10161;41.188;-8.642;2023-12-22T10:50:19;10.13;;;9.20;;
20000;SDS011;10161;41.188;-8.642;2023-12-22T10:52:48;10.90;;;9.60;;
20000;SDS011;10161;41.188;-8.642;2023-12-22T10:55:16;9.70;;;8.70;;
20000;SDS011;10161;41.188;-8.642;2023-12-22T10:57:44;9.93;;;9.10;;
20000;SDS011;10161;41.188;-8.642;2023-12-22T11:00:14;10.13;;;9.13;;
20000;SDS011;10161;41.188;-8.642;2023-12-22T11:02:42;9.80;;;8.83;;
20000;SDS011;10161;41.188;-8.642;2023-12-22T11:05:10;10.80;;;9.77;;
20000;SDS011;10161;41.188;-8.642;2023-12-22T11:07:38;9.37;;;8.47;;
20000;SDS011;10161;41.188;-8.642;2023-12-22T11:10:08;9.83;;;8.90;;
20000;SDS011;10161;41.188;-8.642;2023-12-22T11:12:37;9.17;;;8.00;;
20000;SDS011;10161;41.188;-8.642;2023-12-22T11:15:05;9.63;;;8.73;;
20000;SDS011;10161;41.188;-8.642;2023-12-22T11:17:36;9.57;;;8.63;;
20000;SDS011;10161;41.188;-8.642;2023-12-22T11:20:05;8.50;;;7.60;;
20000;SDS011;10161;41.188;-8.642;2023-12-22T11:22:34;8.80;;;8.00;;
20000;SDS011;10161;41.188;-8.642;2023-12-22T11:25:02;8.07;;;7.30;;
20000;SDS011;10161;41.188;-8.642;2023-12-22T11:27:33;8.50;;;7.77;;
20000;SDS011;10161;41.188;-8.642;2023-12-22T11:30:01;9.07;;;8.17;;
20000;SDS011;10161;41.188;-8.642;2023-12-22T11:32:37;7.97;;;7.17;;
20000;SDS011;10161;41.188;-8.642;2023-12-22T11:35:07;8.17;;;7.37;;
20000;SDS011;10161;41.188;-8.642;2023-12-22T11:37:34;7.80;;;7.10;;
20000;SDS011;10161;41.188;-8.642;2023-12-22T11:40:02;8.10;;;7.30;;
20000;SDS011;10161;41.188;-8.642;2023-12-22T11:42:31;8.20;;;7.47;;
20000;SDS011;10161;41.188;-8.642;2023-12-22T11:45:03;8.27;;;7.47;;
20000;SDS011;10161;41.188;-8.642;2023-12-22T11:47:31;7.40;;;6.70;;
20000;SDS011;10161;41.188;-8.642;2023-12-22T11:50:00;7.20;;;6.50;;
20000;SDS011;10161;41.188;-8.642;2023-12-22T11:52:27;7.47;;;6.83;;
20000;SDS011;10161;41.188;-8.642;2023-12-22T11:54:54;8.00;;;7.30;;
20000;SDS011;10161;41.188;-8.642;2023-12-22T11:57:30;7.13;;;6.43;;
20000;SDS011;10161;41.188;-8.642;2023-12-22T12:00:02;7.23;;;6.60;;
20000;SDS011;10161;41.188;-8.642;2023-12-22T12:02:34;6.60;;;6.00;;
20000;SDS011;10161;41.188;-8.642;2023-12-22T12:05:05;6.93;;;6.23;;
20000;SDS011;10161;41.188;-8.642;2023-12-22T12:07:41;6.97;;;6.27;;
20000;SDS011;10161;41.188;-8.642;2023-12-22T12:13:12;6.37;;;5.77;;
20000;SDS011;10161;41.188;-8.642;2023-12-22T12:15:41;6.10;;;5.60;;
20000;SDS011;10161;41.188;-8.642;2023-12-22T12:18:08;8.07;;;6.60;;
20000;SDS011;10161;41.188;-8.642;2023-12-22T12:20:39;6.80;;;6.20;;
20000;SDS011;10161;41.188;-8.642;2023-12-22T12:23:06;6.90;;;6.20;;
20000;SDS011;10161;41.188;-8.642;2023-12-22T12:25:34;6.90;;;6.20;;
20000;SDS011;10161;41.188;-8.642;2023-12-22T12:28:01;6.00;;;5.40;;
20000;SDS011;10161;41.188;-8.642;2023-12-22T12:30:28;6.40;;;5.80;;
20000;SDS011;10161;41.188;-8.642;2023-12-22T12:32:58;6.90;;;6.20;;
20000;SDS011;10161;41.188;-8.642;2023-12-22T12:35:27;6.50;;;5.90;;
20000;SDS011;10161;41.188;-8.642;2023-12-22T12:37:56;5.83;;;5.30;;
20000;SDS011;10161;41.188;-8.642;2023-12-22T12:40:24;5.70;;;5.20;;
20000;SDS011;10161;41.188;-8.642;2023-12-22T12:42:51;5.73;;;5.23;;
20000;SDS011;10161;41.188;-8.642;2023-12-22T12:45:21;5.97;;;5.37;;
20000;SDS011;10161;41.188;-8.642;2023-12-22T12:47:59;5.90;;;5.30;;
20000;SDS011;10161;41.188;-8.642;2023-12-22T12:50:27;5.53;;;5.03;;
20000;SDS011;10161;41.188;-8.642;2023-12-22T12:52:57;5.73;;;5.13;;
20000;SDS011;10161;41.188;-8.642;2023-12-22T12:55:26;6.07;;;5.47;;
20000;SDS011;10161;41.188;-8.642;2023-12-22T12:57:53;6.23;;;5.63;;
20000;SDS011;10161;41.188;-8.642;2023-12-22T13:00:23;6.50;;;5.57;;
20000;SDS011;10161;41.188;-8.642;2023-12-22T13:02:51;6.23;;;5.63;;
20000;SDS011;10161;41.188;-8.642;2023-12-22T13:05:21;7.93;;;6.10;;
20000;SDS011;10161;41.188;-8.642;2023-12-22T13:07:48;7.13;;;5.70;;
20000;SDS011;10161;41.188;-8.642;2023-12-22T13:10:24;6.03;;;5.50;;
20000;SDS011;10161;41.188;-8.642;2023-12-22T13:12:52;6.40;;;5.70;;
20000;SDS011;10161;41.188;-8.642;2023-12-22T13:15:19;8.03;;;6.40;;
20000;SDS011;10161;41.188;-8.642;2023-12-22T13:17:46;6.63;;;5.93;;
20000;SDS011;10161;41.188;-8.642;2023-12-22T13:20:15;7.70;;;6.57;;
20000;SDS011;10161;41.188;-8.642;2023-12-22T13:22:42;7.13;;;6.50;;
20000;SDS011;10161;41.188;-8.642;2023-12-22T13:25:10;13.07;;;6.43;;
20000;SDS011;10161;41.188;-8.642;2023-12-22T13:27:46;6.60;;;6.00;;
20000;SDS011;10161;41.188;-8.642;2023-12-22T13:30:15;6.33;;;5.73;;
20000;SDS011;10161;41.188;-8.642;2023-12-22T13:32:42;8.30;;;7.20;;
20000;SDS011;10161;41.188;-8.642;2023-12-22T13:35:09;6.60;;;6.00;;
20000;SDS011;10161;41.188;-8.642;2023-12-22T13:37:40;6.43;;;5.83;;
20000;SDS011;10161;41.188;-8.642;2023-12-22T13:40:08;7.13;;;6.50;;
20000;SDS011;10161;41.188;-8.642;2023-12-22T13:42:37;6.87;;;6.17;;
20000;SDS011;10161;41.188;-8.642;2023-12-22T13:45:06;7.50;;;6.30;;
20000;SDS011;10161;41.188;-8.642;2023-12-22T13:47:40;6.77;;;6.00;;
20000;SDS011;10161;41.188;-8.642;2023-12-22T13:50:13;6.47;;;5.83;;
20000;SDS011;10161;41.188;-8.642;2023-12-22T13:52:40;6.63;;;5.97;;
20000;SDS011;10161;41.188;-8.642;2023-12-22T13:55:10;6.50;;;5.90;;
20000;SDS011;10161;41.188;-8.642;2023-12-22T13:57:37;7.40;;;6.70;;
20000;SDS011;10161;41.188;-8.642;2023-12-22T14:02:55;6.73;;;6.10;;
20000;SDS011;10161;41.188;-8.642;2023-12-22T14:05:23;5.90;;;5.40;;
20000;SDS011;10161;41.188;-8.642;2023-12-22T14:07:50;7.10;;;5.97;;
20000;SDS011;10161;41.188;-8.642;2023-12-22T14:10:17;6.93;;;6.23;;
20000;SDS011;10161;41.188;-8.642;2023-12-22T14:12:44;6.93;;;6.23;;
20000;SDS011;10161;41.188;-8.642;2023-12-22T14:15:12;6.33;;;5.70;;
20000;SDS011;10161;41.188;-8.642;2023-12-22T14:17:41;6.90;;;6.20;;
20000;SDS011;10161;41.188;-8.642;2023-12-22T14:20:09;6.93;;;6.27;;
20000;SDS011;10161;41.188;-8.642;2023-12-22T14:22:38;6.23;;;5.63;;
20000;SDS011;10161;41.188;-8.642;2023-12-22T14:25:05;6.40;;;5.40;;
20000;SDS011;10161;41.188;-8.642;2023-12-22T14:27:33;7.40;;;6.70;;
20000;SDS011;10161;41.188;-8.642;2023-12-22T14:30:00;6.67;;;5.97;;
20000;SDS011;10161;41.188;-8.642;2023-12-22T14:32:27;6.60;;;5.90;;
20000;SDS011;10161;41.188;-8.642;2023-12-22T14:34:56;6.57;;;5.97;;
20000;SDS011;10161;41.188;-8.642;2023-12-22T14:37:23;6.17;;;5.57;;
20000;SDS011;10161;41.188;-8.642;2023-12-22T14:39:51;5.47;;;4.90;;